sensor_id;sensor_type;location;lat;lon;timestamp;P1;durP1;ratioP1;P2;durP2;ratioP2
18304;SDS011;9278;52.156;21.048;2023-04-07T00:02:26;39.90;;;17.67;;
18304;SDS011;9278;52.156;21.048;2023-04-07T00:04:55;39.80;;;17.80;;
18304;SDS011;9278;52.156;21.048;2023-04-07T00:07:24;37.07;;;17.63;;
18304;SDS011;9278;52.156;21.048;2023-04-07T00:09:52;36.90;;;16.93;;
18304;SDS011;9278;52.156;21.048;2023-04-07T00:12:20;35.37;;;17.07;;
18304;SDS011;9278;52.156;21.048;2023-04-07T00:14:48;41.33;;;18.67;;
18304;SDS011;9278;52.156;21.048;2023-04-07T00:17:16;38.17;;;18.00;;
18304;SDS011;9278;52.156;21.048;2023-04-07T00:19:46;36.37;;;17.00;;
18304;SDS011;9278;52.156;21.048;2023-04-07T00:22:14;37.03;;;17.33;;
18304;SDS011;9278;52.156;21.048;2023-04-07T00:24:43;39.70;;;19.03;;
18304;SDS011;9278;52.156;21.048;2023-04-07T00:27:11;38.93;;;19.20;;
18304;SDS011;9278;52.156;21.048;2023-04-07T00:29:40;39.43;;;18.37;;
18304;SDS011;9278;52.156;21.048;2023-04-07T00:32:09;37.67;;;18.40;;
18304;SDS011;9278;52.156;21.048;2023-04-07T00:34:37;39.73;;;19.80;;
18304;SDS011;9278;52.156;21.048;2023-04-07T00:37:06;40.60;;;18.37;;
18304;SDS011;9278;52.156;21.048;2023-04-07T00:39:35;38.27;;;18.90;;
18304;SDS011;9278;52.156;21.048;2023-04-07T00:42:03;42.53;;;18.87;;
18304;SDS011;9278;52.156;21.048;2023-04-07T00:44:32;35.17;;;18.23;;
18304;SDS011;9278;52.156;21.048;2023-04-07T00:47:00;40.40;;;17.87;;
18304;SDS011;9278;52.156;21.048;2023-04-07T00:49:29;41.07;;;19.90;;
18304;SDS011;9278;52.156;21.048;2023-04-07T00:51:58;39.00;;;19.03;;
18304;SDS011;9278;52.156;21.048;2023-04-07T00:54:29;40.20;;;18.77;;
18304;SDS011;9278;52.156;21.048;2023-04-07T00:56:57;40.67;;;18.33;;
18304;SDS011;9278;52.156;21.048;2023-04-07T00:59:27;40.93;;;19.13;;
18304;SDS011;9278;52.156;21.048;2023-04-07T01:02:00;40.17;;;18.80;;
18304;SDS011;9278;52.156;21.048;2023-04-07T01:04:34;40.27;;;18.70;;
18304;SDS011;9278;52.156;21.048;2023-04-07T01:07:10;44.93;;;19.43;;
18304;SDS011;9278;52.156;21.048;2023-04-07T01:09:56;40.80;;;18.87;;
18304;SDS011;9278;52.156;21.048;2023-04-07T01:12:35;42.47;;;19.07;;
18304;SDS011;9278;52.156;21.048;2023-04-07T01:15:13;38.17;;;19.23;;
18304;SDS011;9278;52.156;21.048;2023-04-07T01:17:47;44.00;;;19.53;;
18304;SDS011;9278;52.156;21.048;2023-04-07T01:20:24;45.20;;;19.23;;
18304;SDS011;9278;52.156;21.048;2023-04-07T01:23:01;36.97;;;19.10;;
18304;SDS011;9278;52.156;21.048;2023-04-07T01:25:45;40.83;;;20.03;;
18304;SDS011;9278;52.156;21.048;2023-04-07T01:28:40;41.47;;;19.37;;
18304;SDS011;9278;52.156;21.048;2023-04-07T01:31:16;45.73;;;19.87;;
18304;SDS011;9278;52.156;21.048;2023-04-07T01:33:44;48.87;;;19.97;;
18304;SDS011;9278;52.156;21.048;2023-04-07T01:36:13;50.53;;;20.47;;
18304;SDS011;9278;52.156;21.048;2023-04-07T01:38:43;42.27;;;19.00;;
18304;SDS011;9278;52.156;21.048;2023-04-07T01:41:12;40.90;;;19.33;;
18304;SDS011;9278;52.156;21.048;2023-04-07T01:43:42;47.77;;;20.83;;
18304;SDS011;9278;52.156;21.048;2023-04-07T01:46:11;39.63;;;20.57;;
18304;SDS011;9278;52.156;21.048;2023-04-07T01:48:41;43.97;;;20.80;;
18304;SDS011;9278;52.156;21.048;2023-04-07T01:51:10;43.90;;;20.63;;
18304;SDS011;9278;52.156;21.048;2023-04-07T01:53:43;47.37;;;20.40;;
18304;SDS011;9278;52.156;21.048;2023-04-07T01:56:12;46.80;;;21.90;;
18304;SDS011;9278;52.156;21.048;2023-04-07T01:58:44;39.10;;;19.40;;
18304;SDS011;9278;52.156;21.048;2023-04-07T02:01:15;46.97;;;21.53;;
18304;SDS011;9278;52.156;21.048;2023-04-07T02:03:45;45.30;;;22.20;;
18304;SDS011;9278;52.156;21.048;2023-04-07T02:06:21;44.40;;;22.23;;
18304;SDS011;9278;52.156;21.048;2023-04-07T02:08:56;54.53;;;21.10;;
18304;SDS011;9278;52.156;21.048;2023-04-07T02:11:29;50.63;;;22.40;;
18304;SDS011;9278;52.156;21.048;2023-04-07T02:14:03;49.57;;;23.23;;
18304;SDS011;9278;52.156;21.048;2023-04-07T02:16:43;52.40;;;25.17;;
18304;SDS011;9278;52.156;21.048;2023-04-07T02:19:15;48.40;;;23.37;;
18304;SDS011;9278;52.156;21.048;2023-04-07T02:21:45;50.27;;;23.67;;
18304;SDS011;9278;52.156;21.048;2023-04-07T02:24:17;52.13;;;23.30;;
18304;SDS011;9278;52.156;21.048;2023-04-07T02:26:47;55.87;;;24.80;;
18304;SDS011;9278;52.156;21.048;2023-04-07T02:29:16;56.53;;;25.20;;
18304;SDS011;9278;52.156;21.048;2023-04-07T02:31:44;52.57;;;23.70;;
18304;SDS011;9278;52.156;21.048;2023-04-07T02:34:12;57.00;;;23.50;;
18304;SDS011;9278;52.156;21.048;2023-04-07T02:36:42;56.10;;;24.93;;
18304;SDS011;9278;52.156;21.048;2023-04-07T02:39:11;50.97;;;24.63;;
18304;SDS011;9278;52.156;21.048;2023-04-07T02:41:40;51.63;;;22.73;;
18304;SDS011;9278;52.156;21.048;2023-04-07T02:44:08;57.23;;;23.53;;
18304;SDS011;9278;52.156;21.048;2023-04-07T02:46:36;56.40;;;23.23;;
18304;SDS011;9278;52.156;21.048;2023-04-07T02:49:04;58.40;;;24.53;;
18304;SDS011;9278;52.156;21.048;2023-04-07T02:51:32;63.13;;;24.58;;
18304;SDS011;9278;52.156;21.048;2023-04-07T02:54:02;55.13;;;24.63;;
18304;SDS011;9278;52.156;21.048;2023-04-07T02:56:30;61.90;;;24.40;;
18304;SDS011;9278;52.156;21.048;2023-04-07T02:58:59;55.43;;;24.70;;
18304;SDS011;9278;52.156;21.048;2023-04-07T03:01:29;56.33;;;25.50;;
18304;SDS011;9278;52.156;21.048;2023-04-07T03:03:58;53.50;;;23.10;;
18304;SDS011;9278;52.156;21.048;2023-04-07T03:06:27;54.37;;;24.37;;
18304;SDS011;9278;52.156;21.048;2023-04-07T03:09:08;54.23;;;24.17;;
18304;SDS011;9278;52.156;21.048;2023-04-07T03:11:38;58.00;;;25.17;;
18304;SDS011;9278;52.156;21.048;2023-04-07T03:14:07;54.80;;;24.27;;
18304;SDS011;9278;52.156;21.048;2023-04-07T03:16:42;60.23;;;25.80;;
18304;SDS011;9278;52.156;21.048;2023-04-07T03:19:12;58.87;;;24.27;;
18304;SDS011;9278;52.156;21.048;2023-04-07T03:21:45;56.77;;;24.53;;
18304;SDS011;9278;52.156;21.048;2023-04-07T03:24:14;66.47;;;26.37;;
18304;SDS011;9278;52.156;21.048;2023-04-07T03:26:44;54.80;;;25.37;;
18304;SDS011;9278;52.156;21.048;2023-04-07T03:29:20;58.70;;;25.37;;
18304;SDS011;9278;52.156;21.048;2023-04-07T03:31:49;57.20;;;24.77;;
18304;SDS011;9278;52.156;21.048;2023-04-07T03:34:21;51.53;;;23.27;;
18304;SDS011;9278;52.156;21.048;2023-04-07T03:36:49;55.43;;;25.63;;
18304;SDS011;9278;52.156;21.048;2023-04-07T03:39:19;54.73;;;24.50;;
18304;SDS011;9278;52.156;21.048;2023-04-07T03:41:52;59.93;;;26.73;;
18304;SDS011;9278;52.156;21.048;2023-04-07T03:44:24;56.83;;;24.67;;
18304;SDS011;9278;52.156;21.048;2023-04-07T03:46:53;62.23;;;26.40;;
18304;SDS011;9278;52.156;21.048;2023-04-07T03:49:23;58.43;;;25.50;;
18304;SDS011;9278;52.156;21.048;2023-04-07T03:51:52;63.10;;;25.40;;
18304;SDS011;9278;52.156;21.048;2023-04-07T03:54:22;57.97;;;27.33;;
18304;SDS011;9278;52.156;21.048;2023-04-07T03:56:50;58.40;;;25.17;;
18304;SDS011;9278;52.156;21.048;2023-04-07T03:59:21;61.93;;;27.00;;
18304;SDS011;9278;52.156;21.048;2023-04-07T04:01:58;63.50;;;27.27;;
18304;SDS011;9278;52.156;21.048;2023-04-07T04:04:26;65.65;;;26.92;;
18304;SDS011;9278;52.156;21.048;2023-04-07T04:06:55;72.57;;;29.00;;
18304;SDS011;9278;52.156;21.048;2023-04-07T04:09:46;61.50;;;27.35;;
18304;SDS011;9278;52.156;21.048;2023-04-07T04:12:15;63.53;;;27.67;;
18304;SDS011;9278;52.156;21.048;2023-04-07T04:14:55;63.37;;;26.00;;
18304;SDS011;9278;52.156;21.048;2023-04-07T04:17:23;61.97;;;25.58;;
18304;SDS011;9278;52.156;21.048;2023-04-07T04:19:52;66.22;;;27.85;;
18304;SDS011;9278;52.156;21.048;2023-04-07T04:22:28;65.65;;;28.00;;
18304;SDS011;9278;52.156;21.048;2023-04-07T04:24:59;54.88;;;25.10;;
18304;SDS011;9278;52.156;21.048;2023-04-07T04:27:30;60.67;;;27.73;;
18304;SDS011;9278;52.156;21.048;2023-04-07T04:30:08;59.55;;;27.00;;
18304;SDS011;9278;52.156;21.048;2023-04-07T04:32:43;57.35;;;25.92;;
18304;SDS011;9278;52.156;21.048;2023-04-07T04:35:14;64.35;;;25.73;;
18304;SDS011;9278;52.156;21.048;2023-04-07T04:37:53;55.70;;;26.13;;
18304;SDS011;9278;52.156;21.048;2023-04-07T04:40:23;60.03;;;27.27;;
18304;SDS011;9278;52.156;21.048;2023-04-07T04:42:52;60.43;;;26.07;;
18304;SDS011;9278;52.156;21.048;2023-04-07T04:45:21;61.88;;;27.25;;
18304;SDS011;9278;52.156;21.048;2023-04-07T04:47:49;61.00;;;26.40;;
18304;SDS011;9278;52.156;21.048;2023-04-07T04:50:17;56.80;;;25.70;;
18304;SDS011;9278;52.156;21.048;2023-04-07T04:52:47;55.17;;;26.58;;
18304;SDS011;9278;52.156;21.048;2023-04-07T04:55:20;55.08;;;27.17;;
18304;SDS011;9278;52.156;21.048;2023-04-07T04:57:51;59.30;;;27.00;;
18304;SDS011;9278;52.156;21.048;2023-04-07T05:00:29;48.72;;;25.55;;
18304;SDS011;9278;52.156;21.048;2023-04-07T05:03:01;69.13;;;28.48;;
18304;SDS011;9278;52.156;21.048;2023-04-07T05:05:35;59.08;;;27.80;;
18304;SDS011;9278;52.156;21.048;2023-04-07T05:08:04;58.20;;;26.88;;
18304;SDS011;9278;52.156;21.048;2023-04-07T05:10:37;55.43;;;24.60;;
18304;SDS011;9278;52.156;21.048;2023-04-07T05:13:12;56.27;;;26.30;;
18304;SDS011;9278;52.156;21.048;2023-04-07T05:15:40;59.33;;;27.67;;
18304;SDS011;9278;52.156;21.048;2023-04-07T05:18:11;56.73;;;27.00;;
18304;SDS011;9278;52.156;21.048;2023-04-07T05:20:39;56.43;;;27.20;;
18304;SDS011;9278;52.156;21.048;2023-04-07T05:23:08;59.23;;;27.03;;
18304;SDS011;9278;52.156;21.048;2023-04-07T05:25:37;62.23;;;27.53;;
18304;SDS011;9278;52.156;21.048;2023-04-07T05:28:07;57.37;;;26.53;;
18304;SDS011;9278;52.156;21.048;2023-04-07T05:30:37;61.63;;;26.00;;
18304;SDS011;9278;52.156;21.048;2023-04-07T05:33:05;63.47;;;28.50;;
18304;SDS011;9278;52.156;21.048;2023-04-07T05:35:42;57.27;;;27.83;;
18304;SDS011;9278;52.156;21.048;2023-04-07T05:38:12;54.83;;;25.43;;
18304;SDS011;9278;52.156;21.048;2023-04-07T05:40:42;59.45;;;27.17;;
18304;SDS011;9278;52.156;21.048;2023-04-07T05:43:16;55.87;;;27.63;;
18304;SDS011;9278;52.156;21.048;2023-04-07T05:45:46;56.97;;;26.92;;
18304;SDS011;9278;52.156;21.048;2023-04-07T05:48:14;55.83;;;27.17;;
18304;SDS011;9278;52.156;21.048;2023-04-07T05:50:45;57.22;;;27.92;;
18304;SDS011;9278;52.156;21.048;2023-04-07T05:53:16;54.75;;;26.20;;
18304;SDS011;9278;52.156;21.048;2023-04-07T05:55:45;54.47;;;26.98;;
18304;SDS011;9278;52.156;21.048;2023-04-07T05:58:31;54.15;;;26.58;;
18304;SDS011;9278;52.156;21.048;2023-04-07T06:01:01;56.27;;;26.60;;
18304;SDS011;9278;52.156;21.048;2023-04-07T06:03:30;56.40;;;27.30;;
18304;SDS011;9278;52.156;21.048;2023-04-07T06:06:13;58.90;;;27.53;;
18304;SDS011;9278;52.156;21.048;2023-04-07T06:08:43;54.75;;;27.08;;
18304;SDS011;9278;52.156;21.048;2023-04-07T06:11:12;50.75;;;25.35;;
18304;SDS011;9278;52.156;21.048;2023-04-07T06:13:41;49.83;;;25.88;;
18304;SDS011;9278;52.156;21.048;2023-04-07T06:16:11;50.63;;;27.02;;
18304;SDS011;9278;52.156;21.048;2023-04-07T06:18:39;55.70;;;28.13;;
18304;SDS011;9278;52.156;21.048;2023-04-07T06:21:07;57.58;;;27.88;;
18304;SDS011;9278;52.156;21.048;2023-04-07T06:23:35;52.22;;;25.85;;
18304;SDS011;9278;52.156;21.048;2023-04-07T06:26:05;53.28;;;25.77;;
18304;SDS011;9278;52.156;21.048;2023-04-07T06:28:37;50.95;;;26.02;;
18304;SDS011;9278;52.156;21.048;2023-04-07T06:31:05;55.88;;;26.52;;
18304;SDS011;9278;52.156;21.048;2023-04-07T06:33:37;47.30;;;25.25;;
18304;SDS011;9278;52.156;21.048;2023-04-07T06:36:06;49.15;;;24.98;;
18304;SDS011;9278;52.156;21.048;2023-04-07T06:38:34;46.75;;;22.92;;
18304;SDS011;9278;52.156;21.048;2023-04-07T06:41:02;48.42;;;25.20;;
18304;SDS011;9278;52.156;21.048;2023-04-07T06:43:31;51.10;;;26.30;;
18304;SDS011;9278;52.156;21.048;2023-04-07T06:46:01;47.10;;;25.80;;
18304;SDS011;9278;52.156;21.048;2023-04-07T06:48:30;45.38;;;25.35;;
18304;SDS011;9278;52.156;21.048;2023-04-07T06:50:59;46.10;;;24.65;;
18304;SDS011;9278;52.156;21.048;2023-04-07T06:53:27;46.75;;;24.17;;
18304;SDS011;9278;52.156;21.048;2023-04-07T06:56:02;53.35;;;24.92;;
18304;SDS011;9278;52.156;21.048;2023-04-07T06:58:31;43.05;;;22.88;;
18304;SDS011;9278;52.156;21.048;2023-04-07T07:00:59;45.30;;;24.73;;
18304;SDS011;9278;52.156;21.048;2023-04-07T07:03:28;46.65;;;24.75;;
18304;SDS011;9278;52.156;21.048;2023-04-07T07:05:57;47.20;;;23.27;;
18304;SDS011;9278;52.156;21.048;2023-04-07T07:08:27;44.20;;;24.73;;
18304;SDS011;9278;52.156;21.048;2023-04-07T07:10:56;41.55;;;23.13;;
18304;SDS011;9278;52.156;21.048;2023-04-07T07:13:24;45.67;;;25.00;;
18304;SDS011;9278;52.156;21.048;2023-04-07T07:15:53;42.58;;;23.88;;
18304;SDS011;9278;52.156;21.048;2023-04-07T07:18:21;44.25;;;23.50;;
18304;SDS011;9278;52.156;21.048;2023-04-07T07:20:50;44.75;;;24.17;;
18304;SDS011;9278;52.156;21.048;2023-04-07T07:23:18;49.35;;;24.25;;
18304;SDS011;9278;52.156;21.048;2023-04-07T07:25:48;43.88;;;22.58;;
18304;SDS011;9278;52.156;21.048;2023-04-07T07:28:16;42.60;;;22.58;;
18304;SDS011;9278;52.156;21.048;2023-04-07T07:30:47;44.53;;;24.50;;
18304;SDS011;9278;52.156;21.048;2023-04-07T07:33:15;45.03;;;24.27;;
18304;SDS011;9278;52.156;21.048;2023-04-07T07:35:43;45.47;;;23.73;;
18304;SDS011;9278;52.156;21.048;2023-04-07T07:38:11;45.28;;;22.58;;
18304;SDS011;9278;52.156;21.048;2023-04-07T07:40:39;49.55;;;24.90;;
18304;SDS011;9278;52.156;21.048;2023-04-07T07:43:09;42.85;;;24.27;;
18304;SDS011;9278;52.156;21.048;2023-04-07T07:45:37;42.70;;;24.50;;
18304;SDS011;9278;52.156;21.048;2023-04-07T07:48:06;45.38;;;22.80;;
18304;SDS011;9278;52.156;21.048;2023-04-07T07:50:34;43.67;;;24.52;;
18304;SDS011;9278;52.156;21.048;2023-04-07T07:53:02;41.38;;;23.05;;
18304;SDS011;9278;52.156;21.048;2023-04-07T07:55:31;43.15;;;22.13;;
18304;SDS011;9278;52.156;21.048;2023-04-07T07:57:59;43.05;;;22.45;;
18304;SDS011;9278;52.156;21.048;2023-04-07T08:00:29;43.88;;;22.73;;
18304;SDS011;9278;52.156;21.048;2023-04-07T08:02:57;40.10;;;21.27;;
18304;SDS011;9278;52.156;21.048;2023-04-07T08:05:26;42.30;;;22.40;;
18304;SDS011;9278;52.156;21.048;2023-04-07T08:07:54;36.63;;;21.92;;
18304;SDS011;9278;52.156;21.048;2023-04-07T08:10:22;40.78;;;21.40;;
18304;SDS011;9278;52.156;21.048;2023-04-07T08:12:50;37.25;;;21.80;;
18304;SDS011;9278;52.156;21.048;2023-04-07T08:15:18;37.20;;;21.35;;
18304;SDS011;9278;52.156;21.048;2023-04-07T08:17:48;40.20;;;21.95;;
18304;SDS011;9278;52.156;21.048;2023-04-07T08:20:18;37.10;;;21.10;;
18304;SDS011;9278;52.156;21.048;2023-04-07T08:22:46;38.15;;;20.90;;
18304;SDS011;9278;52.156;21.048;2023-04-07T08:25:15;34.83;;;20.15;;
18304;SDS011;9278;52.156;21.048;2023-04-07T08:27:43;36.38;;;20.27;;
18304;SDS011;9278;52.156;21.048;2023-04-07T08:30:11;37.83;;;20.75;;
18304;SDS011;9278;52.156;21.048;2023-04-07T08:32:40;35.80;;;20.55;;
18304;SDS011;9278;52.156;21.048;2023-04-07T08:35:10;35.88;;;20.25;;
18304;SDS011;9278;52.156;21.048;2023-04-07T08:37:39;32.75;;;19.25;;
18304;SDS011;9278;52.156;21.048;2023-04-07T08:40:09;39.70;;;19.50;;
18304;SDS011;9278;52.156;21.048;2023-04-07T08:42:39;35.80;;;20.13;;
18304;SDS011;9278;52.156;21.048;2023-04-07T08:45:08;34.08;;;18.98;;
18304;SDS011;9278;52.156;21.048;2023-04-07T08:47:37;30.55;;;18.98;;
18304;SDS011;9278;52.156;21.048;2023-04-07T08:50:08;33.45;;;17.73;;
18304;SDS011;9278;52.156;21.048;2023-04-07T08:52:41;30.83;;;18.90;;
18304;SDS011;9278;52.156;21.048;2023-04-07T08:55:12;30.52;;;18.65;;
18304;SDS011;9278;52.156;21.048;2023-04-07T08:57:40;32.72;;;17.95;;
18304;SDS011;9278;52.156;21.048;2023-04-07T09:00:09;29.25;;;17.30;;
18304;SDS011;9278;52.156;21.048;2023-04-07T09:02:38;29.98;;;17.55;;
18304;SDS011;9278;52.156;21.048;2023-04-07T09:05:09;30.17;;;17.88;;
18304;SDS011;9278;52.156;21.048;2023-04-07T09:07:40;29.35;;;16.58;;
18304;SDS011;9278;52.156;21.048;2023-04-07T09:10:09;30.55;;;17.02;;
18304;SDS011;9278;52.156;21.048;2023-04-07T09:12:38;30.20;;;17.33;;
18304;SDS011;9278;52.156;21.048;2023-04-07T09:15:06;29.98;;;17.38;;
18304;SDS011;9278;52.156;21.048;2023-04-07T09:17:35;29.65;;;16.77;;
18304;SDS011;9278;52.156;21.048;2023-04-07T09:20:04;27.80;;;16.60;;
18304;SDS011;9278;52.156;21.048;2023-04-07T09:22:34;29.08;;;16.20;;
18304;SDS011;9278;52.156;21.048;2023-04-07T09:25:14;26.48;;;16.33;;
18304;SDS011;9278;52.156;21.048;2023-04-07T09:30:27;24.58;;;15.27;;
18304;SDS011;9278;52.156;21.048;2023-04-07T09:32:56;27.63;;;16.38;;
18304;SDS011;9278;52.156;21.048;2023-04-07T09:35:25;27.45;;;15.15;;
18304;SDS011;9278;52.156;21.048;2023-04-07T09:38:02;27.08;;;15.38;;
18304;SDS011;9278;52.156;21.048;2023-04-07T09:40:31;25.98;;;15.23;;
18304;SDS011;9278;52.156;21.048;2023-04-07T09:43:00;28.33;;;15.02;;
18304;SDS011;9278;52.156;21.048;2023-04-07T09:45:31;26.55;;;15.45;;
18304;SDS011;9278;52.156;21.048;2023-04-07T09:48:05;26.08;;;16.02;;
18304;SDS011;9278;52.156;21.048;2023-04-07T09:50:35;24.58;;;15.07;;
18304;SDS011;9278;52.156;21.048;2023-04-07T09:53:08;25.63;;;15.52;;
18304;SDS011;9278;52.156;21.048;2023-04-07T09:55:36;32.00;;;15.02;;
18304;SDS011;9278;52.156;21.048;2023-04-07T09:58:07;23.13;;;14.05;;
18304;SDS011;9278;52.156;21.048;2023-04-07T10:00:36;26.88;;;15.18;;
18304;SDS011;9278;52.156;21.048;2023-04-07T10:03:05;23.67;;;13.75;;
18304;SDS011;9278;52.156;21.048;2023-04-07T10:05:34;24.08;;;14.55;;
18304;SDS011;9278;52.156;21.048;2023-04-07T10:08:04;29.55;;;15.93;;
18304;SDS011;9278;52.156;21.048;2023-04-07T10:10:34;25.55;;;14.95;;
18304;SDS011;9278;52.156;21.048;2023-04-07T10:13:03;23.95;;;15.25;;
18304;SDS011;9278;52.156;21.048;2023-04-07T10:15:31;27.92;;;15.30;;
18304;SDS011;9278;52.156;21.048;2023-04-07T10:18:00;29.80;;;14.68;;
18304;SDS011;9278;52.156;21.048;2023-04-07T10:20:32;24.42;;;14.63;;
18304;SDS011;9278;52.156;21.048;2023-04-07T10:23:04;27.52;;;14.05;;
18304;SDS011;9278;52.156;21.048;2023-04-07T10:25:41;25.20;;;14.18;;
18304;SDS011;9278;52.156;21.048;2023-04-07T10:28:11;25.10;;;14.73;;
18304;SDS011;9278;52.156;21.048;2023-04-07T10:30:41;26.10;;;15.20;;
18304;SDS011;9278;52.156;21.048;2023-04-07T10:33:11;25.23;;;14.93;;
18304;SDS011;9278;52.156;21.048;2023-04-07T10:38:32;21.15;;;13.45;;
18304;SDS011;9278;52.156;21.048;2023-04-07T10:41:16;22.98;;;13.95;;
18304;SDS011;9278;52.156;21.048;2023-04-07T10:44:00;21.50;;;13.82;;
18304;SDS011;9278;52.156;21.048;2023-04-07T10:49:32;22.45;;;13.68;;
18304;SDS011;9278;52.156;21.048;2023-04-07T11:03:55;25.80;;;14.15;;
18304;SDS011;9278;52.156;21.048;2023-04-07T11:06:25;23.50;;;14.50;;
18304;SDS011;9278;52.156;21.048;2023-04-07T11:08:54;27.45;;;14.05;;
18304;SDS011;9278;52.156;21.048;2023-04-07T11:11:35;25.90;;;14.45;;
18304;SDS011;9278;52.156;21.048;2023-04-07T11:14:06;23.30;;;14.40;;
18304;SDS011;9278;52.156;21.048;2023-04-07T11:16:35;26.98;;;15.10;;
18304;SDS011;9278;52.156;21.048;2023-04-07T11:19:04;26.38;;;15.18;;
18304;SDS011;9278;52.156;21.048;2023-04-07T11:21:33;29.98;;;14.32;;
18304;SDS011;9278;52.156;21.048;2023-04-07T11:24:02;21.77;;;14.40;;
18304;SDS011;9278;52.156;21.048;2023-04-07T11:26:35;25.42;;;14.82;;
18304;SDS011;9278;52.156;21.048;2023-04-07T11:29:07;25.33;;;15.32;;
18304;SDS011;9278;52.156;21.048;2023-04-07T11:31:37;22.85;;;15.27;;
18304;SDS011;9278;52.156;21.048;2023-04-07T11:34:05;26.85;;;15.05;;
18304;SDS011;9278;52.156;21.048;2023-04-07T11:36:37;25.00;;;15.73;;
18304;SDS011;9278;52.156;21.048;2023-04-07T11:39:16;24.55;;;15.45;;
18304;SDS011;9278;52.156;21.048;2023-04-07T11:41:47;21.85;;;14.82;;
18304;SDS011;9278;52.156;21.048;2023-04-07T11:44:18;22.00;;;15.02;;
18304;SDS011;9278;52.156;21.048;2023-04-07T11:46:53;26.85;;;15.98;;
18304;SDS011;9278;52.156;21.048;2023-04-07T11:49:22;24.10;;;15.63;;
18304;SDS011;9278;52.156;21.048;2023-04-07T11:51:56;30.85;;;16.95;;
18304;SDS011;9278;52.156;21.048;2023-04-07T11:54:25;27.25;;;16.90;;
18304;SDS011;9278;52.156;21.048;2023-04-07T11:56:53;24.58;;;16.20;;
18304;SDS011;9278;52.156;21.048;2023-04-07T11:59:23;26.08;;;16.15;;
18304;SDS011;9278;52.156;21.048;2023-04-07T12:01:52;24.35;;;14.50;;
18304;SDS011;9278;52.156;21.048;2023-04-07T12:04:23;19.83;;;14.02;;
18304;SDS011;9278;52.156;21.048;2023-04-07T12:06:52;22.08;;;12.75;;
18304;SDS011;9278;52.156;21.048;2023-04-07T12:09:27;22.63;;;13.05;;
18304;SDS011;9278;52.156;21.048;2023-04-07T12:11:57;20.20;;;13.73;;
18304;SDS011;9278;52.156;21.048;2023-04-07T12:14:26;16.08;;;11.65;;
18304;SDS011;9278;52.156;21.048;2023-04-07T12:16:55;15.77;;;11.93;;
18304;SDS011;9278;52.156;21.048;2023-04-07T12:19:24;17.58;;;12.40;;
18304;SDS011;9278;52.156;21.048;2023-04-07T12:21:54;17.00;;;11.85;;
18304;SDS011;9278;52.156;21.048;2023-04-07T12:24:23;18.35;;;12.38;;
18304;SDS011;9278;52.156;21.048;2023-04-07T12:26:51;17.15;;;11.50;;
18304;SDS011;9278;52.156;21.048;2023-04-07T12:29:19;19.00;;;12.30;;
18304;SDS011;9278;52.156;21.048;2023-04-07T12:31:49;16.40;;;11.73;;
18304;SDS011;9278;52.156;21.048;2023-04-07T12:34:18;16.25;;;9.32;;
18304;SDS011;9278;52.156;21.048;2023-04-07T12:36:46;10.82;;;6.90;;
18304;SDS011;9278;52.156;21.048;2023-04-07T12:39:14;6.13;;;4.40;;
18304;SDS011;9278;52.156;21.048;2023-04-07T12:41:43;6.10;;;4.10;;
18304;SDS011;9278;52.156;21.048;2023-04-07T12:44:13;4.15;;;2.95;;
18304;SDS011;9278;52.156;21.048;2023-04-07T12:46:42;3.25;;;2.60;;
18304;SDS011;9278;52.156;21.048;2023-04-07T12:49:11;4.32;;;2.88;;
18304;SDS011;9278;52.156;21.048;2023-04-07T12:51:39;4.63;;;3.08;;
18304;SDS011;9278;52.156;21.048;2023-04-07T12:54:07;6.15;;;2.90;;
18304;SDS011;9278;52.156;21.048;2023-04-07T12:56:36;5.35;;;2.67;;
18304;SDS011;9278;52.156;21.048;2023-04-07T12:59:05;4.65;;;2.50;;
18304;SDS011;9278;52.156;21.048;2023-04-07T13:01:33;4.13;;;2.90;;
18304;SDS011;9278;52.156;21.048;2023-04-07T13:04:02;4.13;;;2.60;;
18304;SDS011;9278;52.156;21.048;2023-04-07T13:06:32;3.72;;;2.65;;
18304;SDS011;9278;52.156;21.048;2023-04-07T13:09:00;3.22;;;2.22;;
18304;SDS011;9278;52.156;21.048;2023-04-07T13:11:28;3.60;;;2.58;;
18304;SDS011;9278;52.156;21.048;2023-04-07T13:13:57;4.03;;;2.90;;
18304;SDS011;9278;52.156;21.048;2023-04-07T13:16:27;5.88;;;2.95;;
18304;SDS011;9278;52.156;21.048;2023-04-07T13:18:55;6.40;;;3.00;;
18304;SDS011;9278;52.156;21.048;2023-04-07T13:21:23;6.47;;;2.80;;
18304;SDS011;9278;52.156;21.048;2023-04-07T13:24:13;4.25;;;2.75;;
18304;SDS011;9278;52.156;21.048;2023-04-07T13:26:41;4.10;;;2.45;;
18304;SDS011;9278;52.156;21.048;2023-04-07T13:29:10;4.30;;;2.92;;
18304;SDS011;9278;52.156;21.048;2023-04-07T13:31:38;4.22;;;2.90;;
18304;SDS011;9278;52.156;21.048;2023-04-07T13:34:06;6.00;;;2.72;;
18304;SDS011;9278;52.156;21.048;2023-04-07T13:36:34;5.38;;;3.20;;
18304;SDS011;9278;52.156;21.048;2023-04-07T13:39:02;4.60;;;2.90;;
18304;SDS011;9278;52.156;21.048;2023-04-07T13:41:32;5.35;;;2.97;;
18304;SDS011;9278;52.156;21.048;2023-04-07T13:44:00;4.95;;;2.92;;
18304;SDS011;9278;52.156;21.048;2023-04-07T13:46:28;5.93;;;2.92;;
18304;SDS011;9278;52.156;21.048;2023-04-07T13:48:57;4.93;;;2.90;;
18304;SDS011;9278;52.156;21.048;2023-04-07T13:51:25;7.32;;;3.05;;
18304;SDS011;9278;52.156;21.048;2023-04-07T13:53:54;7.43;;;2.80;;
18304;SDS011;9278;52.156;21.048;2023-04-07T13:56:22;5.82;;;3.03;;
18304;SDS011;9278;52.156;21.048;2023-04-07T13:58:52;4.00;;;2.80;;
18304;SDS011;9278;52.156;21.048;2023-04-07T14:01:20;6.82;;;2.70;;
18304;SDS011;9278;52.156;21.048;2023-04-07T14:03:48;4.70;;;2.90;;
18304;SDS011;9278;52.156;21.048;2023-04-07T14:06:18;5.88;;;3.20;;
18304;SDS011;9278;52.156;21.048;2023-04-07T14:08:48;6.15;;;2.97;;
18304;SDS011;9278;52.156;21.048;2023-04-07T14:11:16;6.28;;;3.30;;
18304;SDS011;9278;52.156;21.048;2023-04-07T14:13:45;6.38;;;3.33;;
18304;SDS011;9278;52.156;21.048;2023-04-07T14:16:15;5.13;;;3.38;;
18304;SDS011;9278;52.156;21.048;2023-04-07T14:18:43;6.55;;;3.28;;
18304;SDS011;9278;52.156;21.048;2023-04-07T14:21:12;4.60;;;2.60;;
18304;SDS011;9278;52.156;21.048;2023-04-07T14:23:40;4.35;;;2.75;;
18304;SDS011;9278;52.156;21.048;2023-04-07T14:26:09;4.00;;;2.70;;
18304;SDS011;9278;52.156;21.048;2023-04-07T14:28:37;5.43;;;2.75;;
18304;SDS011;9278;52.156;21.048;2023-04-07T14:31:10;4.72;;;2.72;;
18304;SDS011;9278;52.156;21.048;2023-04-07T14:33:41;6.22;;;2.80;;
18304;SDS011;9278;52.156;21.048;2023-04-07T14:36:10;5.35;;;2.90;;
18304;SDS011;9278;52.156;21.048;2023-04-07T14:38:40;4.50;;;3.00;;
18304;SDS011;9278;52.156;21.048;2023-04-07T14:41:08;5.43;;;2.67;;
18304;SDS011;9278;52.156;21.048;2023-04-07T14:43:37;5.78;;;2.97;;
18304;SDS011;9278;52.156;21.048;2023-04-07T14:46:06;4.68;;;2.78;;
18304;SDS011;9278;52.156;21.048;2023-04-07T14:48:35;5.03;;;2.85;;
18304;SDS011;9278;52.156;21.048;2023-04-07T14:51:10;6.97;;;3.13;;
18304;SDS011;9278;52.156;21.048;2023-04-07T14:53:39;7.43;;;3.38;;
18304;SDS011;9278;52.156;21.048;2023-04-07T14:56:08;5.38;;;3.40;;
18304;SDS011;9278;52.156;21.048;2023-04-07T14:58:37;7.03;;;3.42;;
18304;SDS011;9278;52.156;21.048;2023-04-07T15:01:06;6.47;;;3.83;;
18304;SDS011;9278;52.156;21.048;2023-04-07T15:03:34;7.20;;;3.28;;
18304;SDS011;9278;52.156;21.048;2023-04-07T15:06:05;6.45;;;3.30;;